createdAt,value
2024-05-09T00:02:24.254Z,100.00
2024-05-09T00:04:54.087Z,100.00
2024-05-09T00:07:23.507Z,100.00
2024-05-09T00:09:53.081Z,100.00
2024-05-09T00:12:22.578Z,100.00
2024-05-09T00:14:52.024Z,100.00
2024-05-09T00:17:24.425Z,100.00
2024-05-09T00:19:54.103Z,100.00
2024-05-09T00:22:23.868Z,100.00
2024-05-09T00:24:53.253Z,100.00
2024-05-09T00:27:22.884Z,100.00
2024-05-09T00:29:52.636Z,100.00
2024-05-09T00:32:24.838Z,100.00
2024-05-09T00:34:54.277Z,100.00
2024-05-09T00:37:23.910Z,100.00
2024-05-09T00:39:53.321Z,100.00
2024-05-09T00:42:22.744Z,100.00
2024-05-09T00:44:52.116Z,100.00
2024-05-09T00:47:24.833Z,100.00
2024-05-09T00:49:54.653Z,100.00
2024-05-09T00:52:24.995Z,100.00
2024-05-09T00:54:54.612Z,100.00
2024-05-09T00:57:24.354Z,100.00
2024-05-09T00:59:54.481Z,100.00
2024-05-09T01:02:28.656Z,100.00
2024-05-09T01:04:58.909Z,100.00
2024-05-09T01:07:29.002Z,100.00
2024-05-09T01:09:58.385Z,100.00
2024-05-09T01:12:28.055Z,100.00
2024-05-09T01:14:57.548Z,100.00
2024-05-09T01:17:30.151Z,100.00
2024-05-09T01:19:59.958Z,100.00
2024-05-09T01:22:31.823Z,100.00
2024-05-09T01:25:04.070Z,100.00
2024-05-09T01:27:34.409Z,100.00
2024-05-09T01:30:09.006Z,100.00
2024-05-09T01:32:39.141Z,100.00
2024-05-09T01:35:09.443Z,100.00
2024-05-09T01:37:40.267Z,100.00
2024-05-09T01:40:18.433Z,100.00
2024-05-09T01:42:51.895Z,100.00
2024-05-09T01:45:21.592Z,100.00
2024-05-09T01:47:51.445Z,100.00
2024-05-09T01:50:33.034Z,100.00
2024-05-09T01:53:07.586Z,100.00
2024-05-09T01:55:39.775Z,100.00
2024-05-09T01:58:09.958Z,100.00
2024-05-09T02:00:42.451Z,100.00
2024-05-09T02:03:16.778Z,100.00
2024-05-09T02:05:48.433Z,100.00
2024-05-09T02:08:19.532Z,100.00
2024-05-09T02:10:52.310Z,100.00
2024-05-09T02:13:21.977Z,100.00
2024-05-09T02:15:52.458Z,100.00
2024-05-09T02:18:22.828Z,100.00
2024-05-09T02:20:52.497Z,100.00
2024-05-09T02:23:22.359Z,100.00
2024-05-09T02:25:54.426Z,100.00
2024-05-09T02:28:24.293Z,100.00
2024-05-09T02:30:53.699Z,100.00
2024-05-09T02:33:23.760Z,100.00
2024-05-09T02:35:53.298Z,100.00
2024-05-09T02:38:20.516Z,100.00
2024-05-09T02:40:49.942Z,100.00
2024-05-09T02:43:19.481Z,100.00
2024-05-09T02:45:48.978Z,100.00
2024-05-09T02:48:16.091Z,100.00
2024-05-09T02:50:46.097Z,100.00
2024-05-09T02:53:14.287Z,100.00
2024-05-09T02:55:44.587Z,100.00
2024-05-09T02:58:11.934Z,100.00
2024-05-09T03:00:43.984Z,100.00
2024-05-09T03:03:13.605Z,100.00
2024-05-09T03:05:45.414Z,100.00
2024-05-09T03:08:12.742Z,100.00
2024-05-09T03:10:42.754Z,100.00
2024-05-09T03:13:12.641Z,100.00
2024-05-09T03:15:45.924Z,100.00
2024-05-09T03:18:13.723Z,100.00
2024-05-09T03:20:43.832Z,100.00
2024-05-09T03:23:11.351Z,100.00
2024-05-09T03:25:40.940Z,100.00
2024-05-09T03:28:07.972Z,100.00
2024-05-09T03:30:41.917Z,100.00
2024-05-09T03:33:15.425Z,100.00
2024-05-09T03:35:45.842Z,100.00
2024-05-09T03:38:15.543Z,100.00
2024-05-09T03:40:49.048Z,100.00
2024-05-09T03:43:20.110Z,100.00
2024-05-09T03:45:51.699Z,100.00
2024-05-09T03:48:21.877Z,100.00
2024-05-09T03:50:51.664Z,100.00
2024-05-09T03:53:18.755Z,100.00
2024-05-09T03:55:50.001Z,100.00
2024-05-09T03:58:16.943Z,100.00
2024-05-09T04:00:46.395Z,100.00
2024-05-09T04:03:13.725Z,100.00
2024-05-09T04:05:47.169Z,100.00
2024-05-09T04:08:14.901Z,100.00
2024-05-09T04:10:44.741Z,100.00
2024-05-09T04:13:11.900Z,100.00
2024-05-09T04:15:41.842Z,100.00
2024-05-09T04:18:08.872Z,100.00
2024-05-09T04:20:40.589Z,100.00
2024-05-09T04:23:12.438Z,100.00
2024-05-09T04:25:45.049Z,100.00
2024-05-09T04:28:12.822Z,100.00
2024-05-09T04:30:42.961Z,100.00
2024-05-09T04:33:12.698Z,100.00
2024-05-09T04:35:45.032Z,100.00
2024-05-09T04:38:15.739Z,100.00
2024-05-09T04:40:46.116Z,100.00
2024-05-09T04:43:18.479Z,100.00
2024-05-09T04:45:48.298Z,100.00
2024-05-09T04:48:16.493Z,100.00
2024-05-09T04:50:46.568Z,100.00
2024-05-09T04:53:17.922Z,100.00
2024-05-09T04:55:48.370Z,100.00
2024-05-09T04:58:15.220Z,100.00
2024-05-09T05:00:45.445Z,100.00
2024-05-09T05:03:14.978Z,100.00
2024-05-09T05:05:46.788Z,100.00
2024-05-09T05:08:14.806Z,100.00
2024-05-09T05:10:48.199Z,100.00
2024-05-09T05:13:18.097Z,100.00
2024-05-09T05:15:48.794Z,100.00
2024-05-09T05:18:16.524Z,100.00
2024-05-09T05:20:46.751Z,100.00
2024-05-09T05:23:15.413Z,100.00
2024-05-09T05:25:49.070Z,100.00
2024-05-09T05:28:16.804Z,100.00
2024-05-09T05:30:46.782Z,100.00
2024-05-09T05:33:15.272Z,100.00
2024-05-09T05:35:45.324Z,100.00
2024-05-09T05:38:12.283Z,100.00
2024-05-09T05:40:41.913Z,100.00
2024-05-09T05:43:17.999Z,100.00
2024-05-09T05:45:47.922Z,100.00
2024-05-09T05:48:16.263Z,100.00
2024-05-09T05:50:46.591Z,100.00
2024-05-09T05:53:13.837Z,100.00
2024-05-09T05:55:44.395Z,100.00
2024-05-09T05:58:14.701Z,100.00
2024-05-09T06:00:44.737Z,100.00
2024-05-09T06:03:12.720Z,100.00
2024-05-09T06:05:43.580Z,100.00
2024-05-09T06:08:11.508Z,100.00
2024-05-09T06:10:41.773Z,100.00
2024-05-09T06:13:11.082Z,100.00
2024-05-09T06:15:44.179Z,100.00
2024-05-09T06:18:12.466Z,100.00
2024-05-09T06:20:44.054Z,100.00
2024-05-09T06:23:12.863Z,100.00
2024-05-09T06:25:44.064Z,100.00
2024-05-09T06:28:11.507Z,100.00
2024-05-09T06:30:43.680Z,100.00
2024-05-09T06:33:13.423Z,100.00
2024-05-09T06:35:45.306Z,100.00
2024-05-09T06:38:12.600Z,100.00
2024-05-09T06:40:44.086Z,100.00
2024-05-09T06:43:12.352Z,98.47
2024-05-09T06:45:44.952Z,96.42
2024-05-09T06:48:12.117Z,92.34
2024-05-09T06:50:41.956Z,93.29
2024-05-09T06:53:09.366Z,90.21
2024-05-09T06:55:39.715Z,86.58
2024-05-09T06:58:07.247Z,85.43
2024-05-09T07:00:39.896Z,85.77
2024-05-09T07:03:14.925Z,89.56
2024-05-09T07:05:47.820Z,84.53
2024-05-09T07:08:16.216Z,81.08
2024-05-09T07:10:46.333Z,75.75
2024-05-09T07:13:14.900Z,71.56
2024-05-09T07:15:44.918Z,75.22
2024-05-09T07:18:17.958Z,75.11
2024-05-09T07:20:50.245Z,75.20
2024-05-09T07:23:17.642Z,70.60
2024-05-09T07:25:47.562Z,68.53
2024-05-09T07:28:16.028Z,66.88
2024-05-09T07:30:46.326Z,63.46
2024-05-09T07:33:20.883Z,64.55
2024-05-09T07:35:51.971Z,62.52
2024-05-09T07:38:19.254Z,62.84
2024-05-09T07:40:49.085Z,61.05
2024-05-09T07:43:16.563Z,63.68
2024-05-09T07:45:52.883Z,62.93
2024-05-09T07:53:39.855Z,57.77
2024-05-09T07:56:14.412Z,56.65
2024-05-09T07:58:43.426Z,54.88
2024-05-09T08:01:12.968Z,55.35
2024-05-09T08:03:42.790Z,53.12
2024-05-09T08:06:12.316Z,53.04
2024-05-09T08:08:39.141Z,52.76
2024-05-09T08:11:08.866Z,53.36
2024-05-09T08:13:35.928Z,51.61
2024-05-09T08:16:06.036Z,51.71
2024-05-09T08:18:33.493Z,49.63
2024-05-09T08:21:05.712Z,47.62
2024-05-09T08:23:32.656Z,47.47
2024-05-09T08:26:02.153Z,46.64
2024-05-09T08:28:29.052Z,46.14
2024-05-09T08:31:00.041Z,45.67
2024-05-09T08:33:28.749Z,45.95
2024-05-09T08:36:00.412Z,46.81
2024-05-09T08:38:29.863Z,46.27
2024-05-09T08:40:59.308Z,46.83
2024-05-09T08:43:27.737Z,46.71
2024-05-09T08:45:58.153Z,48.29
2024-05-09T08:48:25.518Z,47.75
2024-05-09T08:50:59.270Z,47.52
2024-05-09T08:53:26.447Z,46.94
2024-05-09T08:56:03.467Z,45.54
2024-05-09T08:58:30.776Z,44.64
2024-05-09T09:01:00.695Z,43.92
2024-05-09T09:03:32.897Z,43.74
2024-05-09T09:06:05.226Z,42.89
2024-05-09T09:08:32.364Z,42.98
2024-05-09T09:11:04.466Z,42.30
2024-05-09T09:13:31.572Z,43.45
2024-05-09T09:16:02.764Z,42.03
2024-05-09T09:18:30.400Z,42.79
2024-05-09T09:21:00.125Z,41.03
2024-05-09T09:23:28.333Z,40.40
2024-05-09T09:26:03.900Z,41.06
2024-05-09T09:28:30.983Z,39.68
2024-05-09T09:31:04.496Z,40.20
2024-05-09T09:33:32.449Z,39.11
2024-05-09T09:36:02.960Z,38.32
2024-05-09T09:38:31.280Z,38.31
2024-05-09T09:41:01.909Z,38.91
2024-05-09T09:43:32.949Z,37.86
2024-05-09T09:46:03.998Z,37.76
2024-05-09T09:48:32.430Z,37.80
2024-05-09T09:51:02.864Z,37.52
2024-05-09T09:53:31.887Z,36.68
2024-05-09T09:56:01.706Z,35.93
2024-05-09T09:58:34.795Z,35.67
2024-05-09T10:01:04.375Z,37.95
2024-05-09T10:03:32.464Z,36.90
2024-05-09T10:06:02.871Z,36.37
2024-05-09T10:08:30.348Z,37.46
2024-05-09T10:11:00.001Z,38.43
2024-05-09T10:13:35.496Z,37.08
2024-05-09T10:16:11.823Z,38.01
2024-05-09T10:18:40.862Z,37.16
2024-05-09T10:21:20.295Z,37.12
2024-05-09T10:23:57.431Z,37.63
2024-05-09T10:26:33.839Z,36.46
2024-05-09T10:29:11.069Z,37.15
2024-05-09T10:31:43.715Z,36.46
2024-05-09T10:34:17.683Z,36.49
2024-05-09T10:36:47.339Z,36.56
2024-05-09T10:39:14.169Z,35.90
2024-05-09T10:41:43.922Z,34.77
2024-05-09T10:44:15.706Z,34.72
2024-05-09T10:46:45.959Z,35.71
2024-05-09T10:49:14.269Z,35.52
2024-05-09T10:51:44.484Z,34.99
2024-05-09T10:54:11.395Z,34.28
2024-05-09T10:56:41.999Z,34.29
2024-05-09T10:59:08.895Z,34.90
2024-05-09T11:01:41.266Z,35.38
2024-05-09T11:04:08.538Z,37.03
2024-05-09T11:06:38.583Z,37.88
2024-05-09T11:09:06.116Z,37.30
2024-05-09T11:11:35.980Z,36.89
2024-05-09T11:14:12.227Z,36.42
2024-05-09T11:16:44.452Z,36.48
2024-05-09T11:19:15.662Z,35.20
2024-05-09T11:21:42.704Z,34.06
2024-05-09T11:24:12.230Z,34.88
2024-05-09T11:26:39.452Z,35.72
2024-05-09T11:29:08.901Z,36.18
2024-05-09T11:31:48.489Z,36.19
2024-05-09T11:34:18.293Z,37.51
2024-05-09T11:36:45.326Z,38.52
2024-05-09T11:39:14.940Z,39.45
2024-05-09T11:41:42.131Z,39.26
2024-05-09T11:44:13.133Z,37.09
2024-05-09T11:46:41.154Z,35.96
2024-05-09T11:49:13.827Z,35.44
2024-05-09T11:51:40.904Z,33.91
2024-05-09T11:54:10.448Z,34.10
2024-05-09T11:56:37.433Z,33.84
2024-05-09T11:59:06.856Z,34.89
2024-05-09T12:01:34.217Z,34.41
2024-05-09T12:04:04.152Z,34.24
2024-05-09T12:06:34.056Z,34.26
2024-05-09T12:09:03.607Z,33.43
2024-05-09T12:11:30.617Z,34.54
2024-05-09T12:14:00.038Z,35.49
2024-05-09T12:16:27.338Z,37.04
2024-05-09T12:18:57.031Z,36.64
2024-05-09T12:21:24.613Z,36.55
2024-05-09T12:23:56.648Z,35.27
2024-05-09T12:26:23.906Z,34.86
2024-05-09T12:28:53.593Z,35.10
2024-05-09T12:31:20.438Z,34.33
2024-05-09T12:33:49.986Z,36.02
2024-05-09T12:36:17.182Z,35.08
2024-05-09T12:38:51.666Z,34.55
2024-05-09T12:41:21.171Z,34.63
2024-05-09T12:43:50.911Z,35.61
2024-05-09T12:46:20.311Z,35.74
2024-05-09T12:48:50.099Z,35.48
2024-05-09T12:51:17.124Z,34.96
2024-05-09T12:53:46.614Z,36.17
2024-05-09T12:56:13.813Z,34.40
2024-05-09T12:58:45.821Z,34.41
2024-05-09T13:01:12.834Z,34.22
2024-05-09T13:03:42.547Z,34.58
2024-05-09T13:06:10.201Z,35.17
2024-05-09T13:08:39.661Z,34.73
2024-05-09T13:11:06.666Z,35.61
2024-05-09T13:13:36.384Z,36.58
2024-05-09T13:16:06.416Z,36.30
2024-05-09T13:18:36.651Z,35.97
2024-05-09T13:21:04.050Z,36.67
2024-05-09T13:23:33.928Z,37.40
2024-05-09T13:26:00.920Z,36.90
2024-05-09T13:28:32.374Z,36.25
2024-05-09T13:30:59.407Z,36.71
2024-05-09T13:33:32.007Z,38.27
2024-05-09T13:35:59.527Z,37.71
2024-05-09T13:38:29.441Z,37.24
2024-05-09T13:40:56.579Z,38.41
2024-05-09T13:43:26.665Z,38.61
2024-05-09T13:45:55.740Z,37.44
2024-05-09T13:48:25.891Z,37.01
2024-05-09T13:50:55.733Z,37.02
2024-05-09T13:53:25.773Z,36.66
2024-05-09T13:55:52.975Z,35.95
2024-05-09T13:58:23.633Z,36.46
2024-05-09T14:00:51.251Z,35.06
2024-05-09T14:03:21.549Z,36.62
2024-05-09T14:05:51.144Z,36.97
2024-05-09T14:08:26.072Z,36.66
2024-05-09T14:10:56.438Z,36.70
2024-05-09T14:13:26.023Z,37.40
2024-05-09T14:15:53.206Z,36.38
2024-05-09T14:18:23.346Z,36.24
2024-05-09T14:20:50.894Z,35.99
2024-05-09T14:23:21.194Z,36.09
2024-05-09T14:25:53.148Z,35.28
2024-05-09T14:28:24.633Z,34.95
2024-05-09T14:30:51.823Z,34.99
2024-05-09T14:33:26.682Z,32.93
2024-05-09T14:35:54.437Z,33.86
2024-05-09T14:38:24.341Z,34.79
2024-05-09T14:40:54.259Z,34.83
2024-05-09T14:43:24.638Z,35.78
2024-05-09T14:45:52.221Z,36.08
2024-05-09T14:48:22.425Z,36.02
2024-05-09T14:50:49.690Z,35.88
2024-05-09T14:53:19.785Z,35.55
2024-05-09T14:55:47.049Z,34.15
2024-05-09T14:58:19.883Z,34.02
2024-05-09T15:00:50.365Z,33.43
2024-05-09T15:03:22.119Z,32.66
2024-05-09T15:05:50.510Z,33.30
2024-05-09T15:08:21.801Z,33.15
2024-05-09T15:10:50.236Z,34.17
2024-05-09T15:13:24.150Z,36.36
2024-05-09T15:15:51.705Z,37.16
2024-05-09T15:18:21.740Z,38.00
2024-05-09T15:20:49.503Z,36.40
2024-05-09T15:23:21.733Z,35.90
2024-05-09T15:25:49.517Z,34.93
2024-05-09T15:28:19.148Z,34.33
2024-05-09T15:30:48.995Z,33.20
2024-05-09T15:33:19.049Z,33.10
2024-05-09T15:35:47.093Z,33.52
2024-05-09T15:38:18.556Z,33.83
2024-05-09T15:40:46.119Z,33.35
2024-05-09T15:43:17.189Z,33.96
2024-05-09T15:45:45.239Z,33.63
2024-05-09T15:48:19.116Z,34.42
2024-05-09T15:50:46.606Z,35.43
2024-05-09T15:53:16.333Z,36.50
2024-05-09T15:55:50.522Z,37.52
2024-05-09T15:58:17.810Z,37.92
2024-05-09T16:00:49.663Z,37.93
2024-05-09T16:03:22.555Z,38.60
2024-05-09T16:05:53.231Z,38.56
2024-05-09T16:08:20.646Z,39.45
2024-05-09T16:10:50.461Z,39.77
2024-05-09T16:13:19.714Z,39.61
2024-05-09T16:15:49.969Z,39.37
2024-05-09T16:18:17.823Z,40.16
2024-05-09T16:20:51.019Z,39.68
2024-05-09T16:23:18.171Z,39.60
2024-05-09T16:25:48.563Z,39.89
2024-05-09T16:28:16.735Z,39.68
2024-05-09T16:30:46.782Z,39.21
2024-05-09T16:33:14.604Z,39.48
2024-05-09T16:35:44.845Z,39.17
2024-05-09T16:38:14.595Z,39.90
2024-05-09T16:40:44.350Z,39.96
2024-05-09T16:43:13.343Z,39.44
2024-05-09T16:45:45.255Z,40.67
2024-05-09T16:48:14.249Z,40.74
2024-05-09T16:50:44.381Z,41.11
2024-05-09T16:53:11.422Z,41.02
2024-05-09T16:55:44.048Z,40.43
2024-05-09T16:58:12.377Z,41.01
2024-05-09T17:00:43.789Z,41.29
2024-05-09T17:03:15.046Z,42.20
2024-05-09T17:05:47.282Z,42.23
2024-05-09T17:08:16.340Z,42.42
2024-05-09T17:10:50.037Z,41.83
2024-05-09T17:13:20.623Z,40.71
2024-05-09T17:15:48.672Z,41.52
2024-05-09T17:18:19.276Z,41.54
2024-05-09T17:20:47.755Z,41.53
2024-05-09T17:23:17.505Z,41.36
2024-05-09T17:25:47.640Z,41.15
2024-05-09T17:28:17.570Z,42.32
2024-05-09T17:30:45.541Z,42.55
2024-05-09T17:33:18.132Z,42.54
2024-05-09T17:35:46.142Z,42.22
2024-05-09T17:38:16.774Z,42.54
2024-05-09T17:40:47.071Z,43.13
2024-05-09T17:43:16.956Z,44.96
2024-05-09T17:45:44.176Z,44.32
2024-05-09T17:48:14.411Z,44.82
2024-05-09T17:50:42.181Z,44.28
2024-05-09T17:53:12.617Z,44.79
2024-05-09T17:55:40.713Z,45.05
2024-05-09T17:58:15.664Z,44.96
2024-05-09T18:00:43.201Z,45.57
2024-05-09T18:03:14.407Z,46.06
2024-05-09T18:05:43.145Z,45.86
2024-05-09T18:08:14.284Z,45.72
2024-05-09T18:10:41.977Z,46.79
2024-05-09T18:13:15.835Z,46.41
2024-05-09T18:15:45.397Z,47.77
2024-05-09T18:18:15.875Z,47.02
2024-05-09T18:20:45.546Z,46.87
2024-05-09T18:23:18.730Z,45.86
2024-05-09T18:25:47.652Z,46.73
2024-05-09T18:28:20.563Z,46.18
2024-05-09T18:30:47.863Z,46.58
2024-05-09T18:33:17.689Z,46.97
2024-05-09T18:35:45.568Z,47.53
2024-05-09T18:38:15.774Z,46.95
2024-05-09T18:40:44.932Z,47.94
2024-05-09T18:43:17.642Z,48.49
2024-05-09T18:45:47.858Z,49.18
2024-05-09T18:48:18.666Z,49.31
2024-05-09T18:50:45.951Z,50.36
2024-05-09T18:53:16.773Z,51.08
2024-05-09T18:55:45.079Z,51.52
2024-05-09T18:58:17.181Z,51.64
2024-05-09T19:00:46.751Z,53.62
2024-05-09T19:03:22.095Z,52.72
2024-05-09T19:05:49.543Z,53.82
2024-05-09T19:08:19.337Z,54.58
2024-05-09T19:10:47.558Z,54.97
2024-05-09T19:13:17.448Z,54.83
2024-05-09T19:15:48.291Z,56.35
2024-05-09T19:18:21.392Z,55.65
2024-05-09T19:20:49.264Z,55.85
2024-05-09T19:23:18.890Z,56.78
2024-05-09T19:25:46.092Z,57.36
2024-05-09T19:28:15.962Z,58.51
2024-05-09T19:30:43.402Z,59.12
2024-05-09T19:33:14.285Z,59.65
2024-05-09T19:35:44.673Z,60.02
2024-05-09T19:38:14.776Z,61.19
2024-05-09T19:40:45.342Z,61.20
2024-05-09T19:43:16.836Z,62.28
2024-05-09T19:45:44.220Z,62.71
2024-05-09T19:48:14.019Z,63.43
2024-05-09T19:50:44.206Z,63.54
2024-05-09T19:53:18.231Z,64.78
2024-05-09T19:55:45.666Z,64.65
2024-05-09T19:58:15.829Z,64.92
2024-05-09T20:00:46.002Z,65.06
2024-05-09T20:03:16.975Z,66.02
2024-05-09T20:05:46.907Z,66.69
2024-05-09T20:08:20.208Z,66.89
2024-05-09T20:10:47.563Z,69.12
2024-05-09T20:13:17.432Z,68.91
2024-05-09T20:15:44.937Z,70.19
2024-05-09T20:18:15.451Z,71.75
2024-05-09T20:20:44.864Z,72.73
2024-05-09T20:23:16.085Z,72.77
2024-05-09T20:25:45.904Z,74.99
2024-05-09T20:28:15.380Z,75.86
2024-05-09T20:30:42.590Z,76.01
2024-05-09T20:33:14.164Z,77.30
2024-05-09T20:35:42.341Z,79.09
2024-05-09T20:38:12.393Z,79.18
2024-05-09T20:40:40.081Z,80.75
2024-05-09T20:43:13.250Z,82.41
2024-05-09T20:45:41.094Z,80.89
2024-05-09T20:48:12.038Z,83.16
2024-05-09T20:50:42.250Z,85.50
2024-05-09T20:53:14.597Z,85.01
2024-05-09T20:55:42.829Z,85.91
2024-05-09T20:58:15.562Z,87.74
2024-05-09T21:00:45.512Z,88.47
2024-05-09T21:03:18.291Z,88.50
2024-05-09T21:05:46.522Z,86.91
2024-05-09T21:08:28.040Z,89.90
2024-05-09T21:10:55.566Z,91.06
2024-05-09T21:13:28.234Z,91.50
2024-05-09T21:15:55.838Z,93.92
2024-05-09T21:18:26.838Z,94.57
2024-05-09T21:20:54.320Z,94.44
2024-05-09T21:23:26.203Z,94.81
2024-05-09T21:25:54.024Z,95.79
2024-05-09T21:28:27.781Z,95.46
2024-05-09T21:30:55.214Z,95.32
2024-05-09T21:33:25.222Z,97.90
2024-05-09T21:35:52.704Z,98.03
2024-05-09T21:38:22.418Z,98.29
2024-05-09T21:40:49.897Z,98.26
2024-05-09T21:43:19.782Z,99.41
2024-05-09T21:45:49.937Z,99.92
2024-05-09T21:48:19.905Z,100.00
2024-05-09T21:50:47.056Z,100.00
2024-05-09T21:53:16.876Z,100.00
2024-05-09T21:55:44.110Z,100.00
2024-05-09T21:58:14.605Z,100.00
2024-05-09T22:00:45.514Z,100.00
2024-05-09T22:03:19.164Z,100.00
2024-05-09T22:05:46.408Z,100.00
2024-05-09T22:08:16.424Z,100.00
2024-05-09T22:10:43.950Z,100.00
2024-05-09T22:13:13.857Z,100.00
2024-05-09T22:15:41.530Z,100.00
2024-05-09T22:18:12.160Z,100.00
2024-05-09T22:21:26.386Z,100.00
2024-05-09T22:23:58.907Z,100.00
2024-05-09T22:26:26.594Z,100.00
2024-05-09T22:28:56.615Z,100.00
2024-05-09T22:31:24.272Z,100.00
2024-05-09T22:33:54.415Z,100.00
2024-05-09T22:36:22.293Z,100.00
2024-05-09T22:38:52.112Z,100.00
2024-05-09T22:41:22.010Z,100.00
2024-05-09T22:43:51.998Z,100.00
2024-05-09T22:46:19.398Z,100.00
2024-05-09T22:48:49.319Z,100.00
2024-05-09T22:51:16.618Z,100.00
2024-05-09T22:53:46.681Z,100.00
2024-05-09T22:56:15.022Z,100.00
2024-05-09T22:58:47.549Z,100.00
2024-05-09T23:01:15.514Z,100.00
2024-05-09T23:03:45.492Z,100.00
2024-05-09T23:06:13.121Z,100.00
2024-05-09T23:08:43.114Z,100.00
2024-05-09T23:11:10.307Z,100.00
2024-05-09T23:13:40.187Z,100.00
2024-05-09T23:16:15.770Z,100.00
2024-05-09T23:18:43.394Z,100.00
2024-05-09T23:21:13.233Z,100.00
2024-05-09T23:23:40.329Z,100.00
2024-05-09T23:26:10.325Z,100.00
2024-05-09T23:28:37.493Z,100.00
2024-05-09T23:31:07.978Z,100.00
2024-05-09T23:33:37.920Z,100.00
2024-05-09T23:36:08.401Z,100.00
2024-05-09T23:38:35.757Z,100.00
2024-05-09T23:41:05.530Z,100.00
2024-05-09T23:43:36.718Z,100.00
2024-05-09T23:46:08.903Z,100.00
2024-05-09T23:48:38.791Z,100.00
2024-05-09T23:51:08.555Z,100.00
2024-05-09T23:53:35.662Z,100.00
2024-05-09T23:56:05.368Z,100.00
2024-05-09T23:58:32.387Z,100.00
